Time;durP1;ratioP1;P1;durP2;ratioP2;P2;SDS_P1;SDS_P2;PMS_P1;PMS_P2;Temp;Humidity;BMP_temperature;BMP_pressure;BME280_temperature;BME280_humidity;BME280_pressure;Samples;Min_cycle;Max_cycle;Signal;HPM_P1;HPM_P2
2021/06/30 00:00:57;;;;;;;7.07;1.87;;;;;;;;;;5112408;28;20479;-71
2021/06/30 00:03:24;;;;;;;1.70;1.60;;;;;;;;;;5112631;28;20918;-69
2021/06/30 00:05:51;;;;;;;1.33;1.23;;;;;;;;;;5112063;28;21090;-69
2021/06/30 00:08:20;;;;;;;2.83;1.40;;;;;;;;;;5111233;28;20451;-69
2021/06/30 00:10:47;;;;;;;1.57;1.47;;;;;;;;;;5112060;28;21005;-69
2021/06/30 00:13:14;;;;;;;1.73;1.40;;;;;;;;;;5111944;28;20450;-69
2021/06/30 00:15:42;;;;;;;3.93;1.60;;;;;;;;;;5112470;28;20458;-69
2021/06/30 00:18:09;;;;;;;4.43;1.83;;;;;;;;;;5111379;28;20442;-69
2021/06/30 00:20:37;;;;;;;5.80;1.77;;;;;;;;;;5111987;28;20523;-69
2021/06/30 00:23:04;;;;;;;1.83;1.20;;;;;;;;;;5111637;28;20863;-69
2021/06/30 00:25:33;;;;;;;1.40;1.30;;;;;;;;;;5111779;28;21011;-69
2021/06/30 00:28:00;;;;;;;1.40;1.30;;;;;;;;;;5110925;28;20527;-69
2021/06/30 00:30:27;;;;;;;1.40;1.30;;;;;;;;;;5112175;28;20479;-69
2021/06/30 00:32:54;;;;;;;1.70;1.60;;;;;;;;;;5112335;28;20535;-69
2021/06/30 00:35:21;;;;;;;2.77;1.10;;;;;;;;;;5111140;28;20448;-69
2021/06/30 00:37:48;;;;;;;2.00;1.20;;;;;;;;;;5111380;28;20455;-68
2021/06/30 00:40:16;;;;;;;3.93;2.00;;;;;;;;;;5110980;28;20449;-69
2021/06/30 00:42:44;;;;;;;2.10;1.50;;;;;;;;;;5111970;28;20476;-69
2021/06/30 00:45:12;;;;;;;12.13;3.90;;;;;;;;;;5111208;28;20838;-69
2021/06/30 00:47:39;;;;;;;2.80;1.70;;;;;;;;;;5111470;28;20451;-69
2021/06/30 00:50:07;;;;;;;5.83;1.50;;;;;;;;;;5111024;28;20535;-69
2021/06/30 00:52:34;;;;;;;1.23;1.13;;;;;;;;;;5111417;28;20454;-69
2021/06/30 00:55:01;;;;;;;1.53;1.43;;;;;;;;;;5111332;28;20443;-69
2021/06/30 00:57:29;;;;;;;2.57;1.60;;;;;;;;;;5111431;28;20482;-69
2021/06/30 00:59:57;;;;;;;2.40;2.00;;;;;;;;;;5111196;28;20450;-69
2021/06/30 01:02:24;;;;;;;2.00;1.80;;;;;;;;;;5131808;28;20482;-69
2021/06/30 01:04:52;;;;;;;2.20;1.50;;;;;;;;;;5132068;28;20889;-69
2021/06/30 01:07:19;;;;;;;2.27;1.63;;;;;;;;;;5131127;28;20446;-69
2021/06/30 01:09:46;;;;;;;1.90;1.40;;;;;;;;;;5132145;28;20448;-69
2021/06/30 01:12:13;;;;;;;2.30;1.23;;;;;;;;;;5131542;28;20549;-69
2021/06/30 01:14:41;;;;;;;1.10;1.00;;;;;;;;;;5132051;28;20534;-69
2021/06/30 01:17:10;;;;;;;2.43;1.00;;;;;;;;;;5131080;28;20441;-69
2021/06/30 01:19:38;;;;;;;2.63;1.10;;;;;;;;;;5132089;28;20474;-69
2021/06/30 01:22:06;;;;;;;2.30;1.03;;;;;;;;;;5131339;28;20438;-69
2021/06/30 01:24:35;;;;;;;1.97;1.00;;;;;;;;;;5131916;28;20840;-69
2021/06/30 01:27:02;;;;;;;3.73;1.13;;;;;;;;;;5130744;28;20945;-69
2021/06/30 01:29:29;;;;;;;4.43;1.43;;;;;;;;;;5131673;28;20449;-69
2021/06/30 01:31:57;;;;;;;2.57;1.20;;;;;;;;;;5131955;28;20465;-70
2021/06/30 01:34:24;;;;;;;1.40;1.00;;;;;;;;;;5131612;28;20534;-69
2021/06/30 01:36:52;;;;;;;1.20;1.00;;;;;;;;;;5131304;28;20446;-69
2021/06/30 01:39:21;;;;;;;1.43;1.00;;;;;;;;;;5131290;27;20521;-69
2021/06/30 01:41:50;;;;;;;1.03;0.87;;;;;;;;;;5135716;27;20884;-68
2021/06/30 01:44:17;;;;;;;1.60;0.97;;;;;;;;;;5134800;27;20795;-68
2021/06/30 01:46:45;;;;;;;1.00;0.90;;;;;;;;;;5135346;27;20442;-68
2021/06/30 01:49:13;;;;;;;1.47;0.77;;;;;;;;;;5135050;27;20499;-69
2021/06/30 01:51:40;;;;;;;1.07;0.97;;;;;;;;;;5121029;27;20516;-68
2021/06/30 01:54:11;;;;;;;1.20;0.83;;;;;;;;;;5108076;28;20449;-69
2021/06/30 01:56:38;;;;;;;1.07;0.77;;;;;;;;;;5114335;28;20443;-69
2021/06/30 01:59:07;;;;;;;1.30;0.80;;;;;;;;;;5104869;27;20460;-69
2021/06/30 02:01:35;;;;;;;3.63;0.90;;;;;;;;;;5135084;27;20442;-69
2021/06/30 02:04:02;;;;;;;2.07;0.83;;;;;;;;;;5134810;27;20558;-68
2021/06/30 02:06:30;;;;;;;1.33;1.10;;;;;;;;;;5134656;27;20601;-68
2021/06/30 02:08:58;;;;;;;1.93;1.20;;;;;;;;;;5134793;27;20438;-69
2021/06/30 02:11:25;;;;;;;3.10;1.00;;;;;;;;;;5135311;27;20521;-67
2021/06/30 02:13:52;;;;;;;1.60;0.90;;;;;;;;;;5135285;27;20529;-67
2021/06/30 02:16:21;;;;;;;0.93;0.77;;;;;;;;;;5133907;27;20448;-68
2021/06/30 02:18:48;;;;;;;1.30;0.90;;;;;;;;;;5135081;27;20447;-68
2021/06/30 02:21:16;;;;;;;1.30;0.70;;;;;;;;;;5134229;27;21004;-68
2021/06/30 02:23:43;;;;;;;0.90;0.80;;;;;;;;;;5134677;27;20439;-67
2021/06/30 02:26:10;;;;;;;1.93;1.00;;;;;;;;;;5133658;27;20569;-68
2021/06/30 02:28:38;;;;;;;1.27;1.17;;;;;;;;;;5134887;27;20533;-68
2021/06/30 02:31:05;;;;;;;0.70;0.60;;;;;;;;;;5134094;27;20508;-68
2021/06/30 02:33:33;;;;;;;1.17;0.73;;;;;;;;;;5135087;27;20457;-68
2021/06/30 02:36:00;;;;;;;1.10;0.80;;;;;;;;;;5133932;27;20454;-68
2021/06/30 02:38:28;;;;;;;2.20;0.80;;;;;;;;;;5134422;27;20453;-68
2021/06/30 02:40:55;;;;;;;0.80;0.70;;;;;;;;;;5134937;27;20571;-68
2021/06/30 02:43:22;;;;;;;0.70;0.50;;;;;;;;;;5134404;27;20926;-68
2021/06/30 02:45:49;;;;;;;0.80;0.60;;;;;;;;;;5134312;27;20482;-69
2021/06/30 02:48:16;;;;;;;0.80;0.67;;;;;;;;;;5133290;27;20720;-69
2021/06/30 02:50:45;;;;;;;0.60;0.50;;;;;;;;;;5134429;27;20485;-69
2021/06/30 02:53:12;;;;;;;0.80;0.60;;;;;;;;;;5099387;27;20973;-70
2021/06/30 02:55:39;;;;;;;0.60;0.43;;;;;;;;;;5113880;28;20447;-68
2021/06/30 02:58:06;;;;;;;1.23;1.00;;;;;;;;;;5109292;28;20509;-68
2021/06/30 03:00:34;;;;;;;1.47;0.70;;;;;;;;;;5106880;28;20482;-69
2021/06/30 03:03:01;;;;;;;0.73;0.60;;;;;;;;;;5112756;28;20475;-68
2021/06/30 03:05:28;;;;;;;0.70;0.60;;;;;;;;;;5113750;28;20487;-68
2021/06/30 03:07:56;;;;;;;0.90;0.50;;;;;;;;;;5113227;28;20534;-68
2021/06/30 03:10:24;;;;;;;0.90;0.60;;;;;;;;;;5113894;28;20530;-68
2021/06/30 03:12:51;;;;;;;1.23;0.70;;;;;;;;;;5113535;28;20830;-68
2021/06/30 03:15:18;;;;;;;0.70;0.60;;;;;;;;;;5112663;28;20968;-68
2021/06/30 03:17:45;;;;;;;0.90;0.50;;;;;;;;;;5112683;28;20570;-68
2021/06/30 03:20:14;;;;;;;0.70;0.50;;;;;;;;;;5128498;27;20446;-70
2021/06/30 03:22:42;;;;;;;1.23;0.60;;;;;;;;;;5133935;27;20451;-70
2021/06/30 03:25:12;;;;;;;0.60;0.60;;;;;;;;;;5133186;27;20558;-70
2021/06/30 03:27:39;;;;;;;0.60;0.40;;;;;;;;;;5133574;27;20843;-69
2021/06/30 03:30:08;;;;;;;2.30;0.80;;;;;;;;;;5133103;27;20542;-68
2021/06/30 03:32:35;;;;;;;0.80;0.70;;;;;;;;;;5133267;27;20930;-70
2021/06/30 03:35:02;;;;;;;1.00;0.60;;;;;;;;;;5133064;27;20897;-70
2021/06/30 03:37:30;;;;;;;1.10;0.60;;;;;;;;;;5133004;27;20446;-70
2021/06/30 03:39:57;;;;;;;1.27;0.77;;;;;;;;;;5133585;27;20478;-72
2021/06/30 03:42:25;;;;;;;0.83;0.60;;;;;;;;;;5133469;27;20530;-70
2021/06/30 03:44:53;;;;;;;2.37;0.80;;;;;;;;;;5133227;27;21006;-70
2021/06/30 03:47:20;;;;;;;1.47;0.77;;;;;;;;;;5132467;27;20446;-69
2021/06/30 03:49:47;;;;;;;0.93;0.83;;;;;;;;;;5133029;27;20569;-70
2021/06/30 03:52:14;;;;;;;1.77;0.80;;;;;;;;;;5108761;27;20462;-68
2021/06/30 03:54:42;;;;;;;1.43;0.50;;;;;;;;;;5111515;28;20535;-68
2021/06/30 03:57:09;;;;;;;0.80;0.70;;;;;;;;;;5111553;28;20450;-69
2021/06/30 03:59:37;;;;;;;1.00;0.70;;;;;;;;;;5107928;27;20537;-69
2021/06/30 04:02:05;;;;;;;0.60;0.50;;;;;;;;;;5132453;27;20543;-68
2021/06/30 04:04:32;;;;;;;1.60;0.63;;;;;;;;;;5132894;27;20821;-69
2021/06/30 04:06:59;;;;;;;0.70;0.63;;;;;;;;;;5131862;27;20574;-68
2021/06/30 04:09:26;;;;;;;1.70;1.07;;;;;;;;;;5133165;27;20648;-69
2021/06/30 04:11:53;;;;;;;0.70;0.60;;;;;;;;;;5133021;27;20529;-69
2021/06/30 04:14:20;;;;;;;1.90;0.80;;;;;;;;;;5132358;27;20469;-69
2021/06/30 04:16:49;;;;;;;0.73;0.63;;;;;;;;;;5132440;27;20497;-69
2021/06/30 04:19:16;;;;;;;0.90;0.60;;;;;;;;;;5132321;27;20448;-69
2021/06/30 04:21:43;;;;;;;0.80;0.67;;;;;;;;;;5132688;27;20442;-69
2021/06/30 04:24:11;;;;;;;1.87;0.80;;;;;;;;;;5132240;27;20558;-68
2021/06/30 04:26:38;;;;;;;0.90;0.60;;;;;;;;;;5131874;27;20478;-69
2021/06/30 04:29:05;;;;;;;1.63;0.50;;;;;;;;;;5132122;27;20442;-68
2021/06/30 04:31:32;;;;;;;2.23;0.90;;;;;;;;;;5132599;27;20442;-68
2021/06/30 04:34:01;;;;;;;0.93;0.70;;;;;;;;;;5132158;27;20534;-68
2021/06/30 04:36:28;;;;;;;2.80;0.93;;;;;;;;;;5132255;27;20474;-68
2021/06/30 04:38:56;;;;;;;1.10;0.83;;;;;;;;;;5133085;27;20846;-68
2021/06/30 04:41:23;;;;;;;2.93;0.90;;;;;;;;;;5133059;27;20450;-68
2021/06/30 04:43:50;;;;;;;0.83;0.80;;;;;;;;;;5132722;27;20514;-68
2021/06/30 04:46:17;;;;;;;0.80;0.60;;;;;;;;;;5132962;27;21252;-68
2021/06/30 04:48:44;;;;;;;0.80;0.60;;;;;;;;;;5132624;27;20478;-68
2021/06/30 04:51:13;;;;;;;0.90;0.70;;;;;;;;;;5125448;27;20518;-68
2021/06/30 04:53:40;;;;;;;0.93;0.73;;;;;;;;;;5101998;28;20443;-69
2021/06/30 04:56:07;;;;;;;0.80;0.50;;;;;;;;;;5110750;28;20456;-69
2021/06/30 04:58:34;;;;;;;1.03;0.77;;;;;;;;;;5104461;28;20539;-69
2021/06/30 05:01:02;;;;;;;2.30;0.53;;;;;;;;;;5108582;28;20448;-69
2021/06/30 05:03:30;;;;;;;1.13;0.80;;;;;;;;;;5111306;28;20658;-69
2021/06/30 05:05:57;;;;;;;2.20;1.00;;;;;;;;;;5110847;28;20488;-71
2021/06/30 05:08:26;;;;;;;1.10;0.80;;;;;;;;;;5111260;28;21003;-69
2021/06/30 05:10:53;;;;;;;0.87;0.77;;;;;;;;;;5111262;28;20475;-68
2021/06/30 05:13:20;;;;;;;0.70;0.60;;;;;;;;;;5110588;28;20953;-69
2021/06/30 05:15:47;;;;;;;0.80;0.70;;;;;;;;;;5113550;28;20451;-69
2021/06/30 05:18:14;;;;;;;1.07;0.60;;;;;;;;;;5114922;28;20442;-68
2021/06/30 05:20:42;;;;;;;0.70;0.60;;;;;;;;;;5115675;28;20530;-68
2021/06/30 05:23:09;;;;;;;1.40;0.63;;;;;;;;;;5114951;28;20447;-68
2021/06/30 05:25:38;;;;;;;2.60;0.80;;;;;;;;;;5115353;28;20498;-68
2021/06/30 05:28:06;;;;;;;0.80;0.73;;;;;;;;;;5114172;28;20479;-68
2021/06/30 05:30:33;;;;;;;0.70;0.60;;;;;;;;;;5115447;28;20526;-69
2021/06/30 05:33:00;;;;;;;7.70;1.77;;;;;;;;;;5114642;28;20461;-69
2021/06/30 05:35:29;;;;;;;2.40;1.00;;;;;;;;;;5115459;28;20532;-69
2021/06/30 05:37:56;;;;;;;1.03;0.87;;;;;;;;;;5114696;28;21015;-69
2021/06/30 05:40:23;;;;;;;1.83;0.90;;;;;;;;;;5115596;28;20445;-69
2021/06/30 05:42:54;;;;;;;0.90;0.70;;;;;;;;;;5114878;28;20557;-69
2021/06/30 05:45:22;;;;;;;1.43;0.80;;;;;;;;;;5114908;28;20450;-69
2021/06/30 05:47:49;;;;;;;0.73;0.60;;;;;;;;;;5114868;28;20532;-69
2021/06/30 05:50:17;;;;;;;1.63;0.90;;;;;;;;;;5114685;28;21033;-69
2021/06/30 05:52:45;;;;;;;9.93;1.37;;;;;;;;;;5114734;28;20534;-69
2021/06/30 05:55:12;;;;;;;1.73;0.80;;;;;;;;;;5114479;28;20443;-69
2021/06/30 05:57:40;;;;;;;1.00;0.80;;;;;;;;;;5114462;28;21383;-69
2021/06/30 06:00:11;;;;;;;1.30;0.80;;;;;;;;;;5103892;28;20451;-69
2021/06/30 06:02:38;;;;;;;1.07;0.77;;;;;;;;;;5114713;28;20567;-69
2021/06/30 06:05:06;;;;;;;1.00;0.70;;;;;;;;;;5114497;28;20467;-69
2021/06/30 06:07:33;;;;;;;1.00;0.67;;;;;;;;;;5113832;28;20576;-69
2021/06/30 06:10:00;;;;;;;1.73;0.70;;;;;;;;;;5114265;28;20439;-68
2021/06/30 06:12:27;;;;;;;1.17;1.07;;;;;;;;;;5114727;28;20447;-68
2021/06/30 06:14:55;;;;;;;1.77;0.60;;;;;;;;;;5114603;28;20523;-70
2021/06/30 06:17:24;;;;;;;1.30;0.90;;;;;;;;;;5114236;28;20508;-68
2021/06/30 06:19:51;;;;;;;3.13;0.87;;;;;;;;;;5114676;28;20448;-69
2021/06/30 06:22:18;;;;;;;1.00;0.83;;;;;;;;;;5113549;28;20538;-69
2021/06/30 06:24:45;;;;;;;0.80;0.70;;;;;;;;;;5113819;28;20436;-68
2021/06/30 06:27:13;;;;;;;0.80;0.60;;;;;;;;;;5112176;28;20511;-68
2021/06/30 06:29:40;;;;;;;1.73;0.60;;;;;;;;;;5113983;28;20523;-68
2021/06/30 06:32:08;;;;;;;2.33;0.90;;;;;;;;;;5113376;28;20512;-68
2021/06/30 06:34:36;;;;;;;0.80;0.70;;;;;;;;;;5114042;28;20453;-68
2021/06/30 06:37:04;;;;;;;1.20;0.70;;;;;;;;;;5112977;28;20931;-68
2021/06/30 06:39:32;;;;;;;4.60;0.87;;;;;;;;;;5114175;28;20522;-68
2021/06/30 06:42:01;;;;;;;1.83;0.57;;;;;;;;;;5113682;28;20587;-68
2021/06/30 06:44:28;;;;;;;1.20;0.63;;;;;;;;;;5113868;28;20455;-68
2021/06/30 06:46:55;;;;;;;1.60;0.70;;;;;;;;;;5113937;28;20567;-68
2021/06/30 06:49:23;;;;;;;0.63;0.50;;;;;;;;;;5114108;28;20472;-68
2021/06/30 06:51:51;;;;;;;0.90;0.70;;;;;;;;;;5113996;28;20820;-69
2021/06/30 06:54:18;;;;;;;1.07;0.60;;;;;;;;;;5113272;28;20558;-69
2021/06/30 06:56:45;;;;;;;0.77;0.73;;;;;;;;;;5113335;28;20534;-69
2021/06/30 06:59:13;;;;;;;0.80;0.67;;;;;;;;;;5103191;27;20492;-70
2021/06/30 07:01:40;;;;;;;1.73;0.70;;;;;;;;;;5133785;27;20477;-68
2021/06/30 07:04:07;;;;;;;1.00;0.90;;;;;;;;;;5133166;27;20912;-68
2021/06/30 07:06:34;;;;;;;1.90;0.63;;;;;;;;;;5133900;27;20833;-68
2021/06/30 07:09:03;;;;;;;0.70;0.60;;;;;;;;;;5133219;27;21033;-68
2021/06/30 07:11:30;;;;;;;1.47;0.77;;;;;;;;;;5134115;27;20521;-68
2021/06/30 07:13:57;;;;;;;1.10;0.70;;;;;;;;;;5133616;27;20627;-70
2021/06/30 07:16:24;;;;;;;0.97;0.67;;;;;;;;;;5133604;27;20952;-68
2021/06/30 07:18:52;;;;;;;0.70;0.70;;;;;;;;;;5134010;27;20542;-68
2021/06/30 07:21:19;;;;;;;0.60;0.57;;;;;;;;;;5133020;27;21033;-68
2021/06/30 07:23:46;;;;;;;2.10;0.50;;;;;;;;;;5133470;27;20450;-68
2021/06/30 07:26:16;;;;;;;0.70;0.50;;;;;;;;;;5132767;27;20807;-68
2021/06/30 07:28:43;;;;;;;1.57;0.80;;;;;;;;;;5134132;27;20447;-68
2021/06/30 07:31:10;;;;;;;1.17;0.73;;;;;;;;;;5133301;27;20443;-68
2021/06/30 07:33:40;;;;;;;0.97;0.50;;;;;;;;;;5133762;27;20493;-67
2021/06/30 07:36:08;;;;;;;1.43;0.50;;;;;;;;;;5132443;27;20537;-68
2021/06/30 07:38:35;;;;;;;1.37;0.50;;;;;;;;;;5132562;27;20451;-68
2021/06/30 07:41:02;;;;;;;1.20;0.97;;;;;;;;;;5132784;27;20797;-68
2021/06/30 07:43:30;;;;;;;0.80;0.40;;;;;;;;;;5133518;27;20529;-68
2021/06/30 07:45:58;;;;;;;0.60;0.47;;;;;;;;;;5132437;27;20449;-69
2021/06/30 07:48:25;;;;;;;0.87;0.57;;;;;;;;;;5133377;27;20983;-69
2021/06/30 07:50:52;;;;;;;1.47;0.40;;;;;;;;;;5132726;27;20454;-70
2021/06/30 07:53:19;;;;;;;0.60;0.50;;;;;;;;;;5099430;28;20483;-68
2021/06/30 07:55:47;;;;;;;1.17;0.60;;;;;;;;;;5111905;28;20479;-67
2021/06/30 07:58:14;;;;;;;0.73;0.60;;;;;;;;;;5107739;28;20460;-68
2021/06/30 08:00:42;;;;;;;1.10;0.50;;;;;;;;;;5106710;28;20470;-67
2021/06/30 08:03:10;;;;;;;0.80;0.60;;;;;;;;;;5111800;28;20560;-68
2021/06/30 08:05:37;;;;;;;0.70;0.60;;;;;;;;;;5112009;28;20518;-69
2021/06/30 08:08:04;;;;;;;0.60;0.50;;;;;;;;;;5111828;28;20533;-68
2021/06/30 08:10:31;;;;;;;0.60;0.50;;;;;;;;;;5112392;28;20448;-68
2021/06/30 08:12:58;;;;;;;1.83;0.80;;;;;;;;;;5111539;28;20526;-69
2021/06/30 08:15:26;;;;;;;3.33;0.57;;;;;;;;;;5112507;28;20542;-68
2021/06/30 08:17:54;;;;;;;0.50;0.40;;;;;;;;;;5112091;28;20810;-68
2021/06/30 08:20:21;;;;;;;0.93;0.50;;;;;;;;;;5111732;28;20475;-68
2021/06/30 08:22:50;;;;;;;0.93;0.50;;;;;;;;;;5112257;28;20462;-68
2021/06/30 08:25:17;;;;;;;2.70;0.50;;;;;;;;;;5111315;28;20485;-68
2021/06/30 08:27:45;;;;;;;0.63;0.50;;;;;;;;;;5111764;28;20479;-68
2021/06/30 08:30:13;;;;;;;1.67;0.60;;;;;;;;;;5111593;28;20526;-68
2021/06/30 08:32:41;;;;;;;0.80;0.50;;;;;;;;;;5112223;28;20447;-68
2021/06/30 08:35:10;;;;;;;2.00;0.50;;;;;;;;;;5111665;28;20455;-69
2021/06/30 08:37:41;;;;;;;1.37;0.57;;;;;;;;;;5113393;28;20498;-68
2021/06/30 08:40:09;;;;;;;0.60;0.40;;;;;;;;;;5112321;28;20448;-68
2021/06/30 08:42:36;;;;;;;0.67;0.50;;;;;;;;;;5111765;28;20531;-68
2021/06/30 08:45:04;;;;;;;0.60;0.50;;;;;;;;;;5111267;28;20534;-69
2021/06/30 08:47:34;;;;;;;1.27;0.53;;;;;;;;;;5111462;28;20845;-69
2021/06/30 08:50:01;;;;;;;0.60;0.40;;;;;;;;;;5111225;28;20431;-69
2021/06/30 08:52:30;;;;;;;0.73;0.60;;;;;;;;;;5111522;28;20937;-69
2021/06/30 08:54:58;;;;;;;2.30;0.60;;;;;;;;;;5111342;28;20531;-69
2021/06/30 08:57:26;;;;;;;0.90;0.60;;;;;;;;;;5111576;28;20451;-70
2021/06/30 08:59:53;;;;;;;2.30;0.73;;;;;;;;;;5109594;27;20534;-68
2021/06/30 09:02:20;;;;;;;0.60;0.47;;;;;;;;;;5131317;27;20541;-68
2021/06/30 09:04:47;;;;;;;0.70;0.67;;;;;;;;;;5132182;28;20487;-68
2021/06/30 09:07:15;;;;;;;1.03;0.60;;;;;;;;;;5131187;28;20514;-69
2021/06/30 09:09:43;;;;;;;0.70;0.50;;;;;;;;;;5132209;28;20521;-69
2021/06/30 09:12:12;;;;;;;0.60;0.50;;;;;;;;;;5131428;28;20489;-68
2021/06/30 09:14:41;;;;;;;0.87;0.60;;;;;;;;;;5131947;28;20547;-69
2021/06/30 09:17:20;;;;;;;0.60;0.50;;;;;;;;;;5131450;28;20545;-69
2021/06/30 09:19:48;;;;;;;0.70;0.60;;;;;;;;;;5132028;28;20442;-69
2021/06/30 09:22:16;;;;;;;0.80;0.60;;;;;;;;;;5131051;28;20447;-69
2021/06/30 09:24:45;;;;;;;1.37;0.70;;;;;;;;;;5132005;28;20817;-69
2021/06/30 09:27:14;;;;;;;0.70;0.60;;;;;;;;;;5130599;28;21006;-69
2021/06/30 09:29:42;;;;;;;0.67;0.57;;;;;;;;;;5131882;28;20470;-69
2021/06/30 09:32:10;;;;;;;1.37;0.53;;;;;;;;;;5131477;27;20485;-69
2021/06/30 09:34:38;;;;;;;0.90;0.80;;;;;;;;;;5131960;28;20443;-69
2021/06/30 09:37:06;;;;;;;0.90;0.50;;;;;;;;;;5131056;28;20449;-69
2021/06/30 09:39:37;;;;;;;0.77;0.50;;;;;;;;;;5131809;28;20446;-69
2021/06/30 09:42:06;;;;;;;0.87;0.70;;;;;;;;;;5131388;28;20466;-69
2021/06/30 09:44:34;;;;;;;0.80;0.63;;;;;;;;;;5131749;28;20453;-69
2021/06/30 09:47:01;;;;;;;0.60;0.50;;;;;;;;;;5130427;28;20561;-69
2021/06/30 09:49:29;;;;;;;1.13;0.50;;;;;;;;;;5131496;28;20442;-69
2021/06/30 09:52:09;;;;;;;1.27;0.40;;;;;;;;;;5113005;28;20868;-69
2021/06/30 09:54:37;;;;;;;0.93;0.53;;;;;;;;;;5108933;28;20439;-68
2021/06/30 09:57:07;;;;;;;0.90;0.60;;;;;;;;;;5110115;28;20542;-66
2021/06/30 09:59:37;;;;;;;1.80;0.70;;;;;;;;;;5106181;28;20445;-67
2021/06/30 10:02:05;;;;;;;0.60;0.50;;;;;;;;;;5133490;27;20794;-67
2021/06/30 10:04:33;;;;;;;0.70;0.60;;;;;;;;;;5134809;27;20553;-67
2021/06/30 10:07:02;;;;;;;1.60;0.60;;;;;;;;;;5134407;27;20900;-68
2021/06/30 10:09:29;;;;;;;0.77;0.60;;;;;;;;;;5135425;27;20450;-67
2021/06/30 10:11:57;;;;;;;0.80;0.60;;;;;;;;;;5135102;27;20474;-66
2021/06/30 10:14:26;;;;;;;0.70;0.60;;;;;;;;;;5135292;27;20454;-67
2021/06/30 10:16:54;;;;;;;1.30;0.70;;;;;;;;;;5134605;27;20996;-67
2021/06/30 10:19:21;;;;;;;0.93;0.53;;;;;;;;;;5134407;27;20537;-67
2021/06/30 10:21:48;;;;;;;0.80;0.70;;;;;;;;;;5134690;27;21001;-67
2021/06/30 10:24:16;;;;;;;0.90;0.60;;;;;;;;;;5134085;27;20530;-67
2021/06/30 10:26:43;;;;;;;0.60;0.50;;;;;;;;;;5134610;27;20874;-67
2021/06/30 10:29:11;;;;;;;0.70;0.50;;;;;;;;;;5134123;27;20454;-67
2021/06/30 10:31:41;;;;;;;0.70;0.50;;;;;;;;;;5134419;27;20443;-67
2021/06/30 10:34:10;;;;;;;0.80;0.50;;;;;;;;;;5133963;27;20526;-67
2021/06/30 10:36:45;;;;;;;0.90;0.63;;;;;;;;;;5134033;27;20953;-66
2021/06/30 10:39:12;;;;;;;0.60;0.40;;;;;;;;;;5134258;27;20442;-68
2021/06/30 10:41:42;;;;;;;1.40;0.77;;;;;;;;;;5134341;27;20529;-67
2021/06/30 10:44:13;;;;;;;1.37;0.67;;;;;;;;;;5134142;27;20442;-67
2021/06/30 10:46:42;;;;;;;0.90;0.70;;;;;;;;;;5133864;27;20492;-67
2021/06/30 10:49:19;;;;;;;0.50;0.40;;;;;;;;;;5134143;27;20539;-67
2021/06/30 10:51:46;;;;;;;0.83;0.70;;;;;;;;;;5118946;27;20441;-67
2021/06/30 10:54:31;;;;;;;0.70;0.60;;;;;;;;;;5107720;28;20836;-68
2021/06/30 10:57:13;;;;;;;0.90;0.77;;;;;;;;;;5099784;28;20460;-68
2021/06/30 10:59:55;;;;;;;0.80;0.60;;;;;;;;;;5108795;27;20533;-67
2021/06/30 11:02:24;;;;;;;0.70;0.60;;;;;;;;;;5133701;27;20507;-67
2021/06/30 11:04:51;;;;;;;0.70;0.70;;;;;;;;;;5134070;27;20987;-67
2021/06/30 11:07:34;;;;;;;0.60;0.53;;;;;;;;;;5132756;27;20482;-67
2021/06/30 11:10:21;;;;;;;1.10;0.60;;;;;;;;;;5133756;27;20798;-68
2021/06/30 11:12:51;;;;;;;0.67;0.60;;;;;;;;;;5133887;27;21044;-67
2021/06/30 11:15:33;;;;;;;0.80;0.60;;;;;;;;;;5133084;27;20486;-68
2021/06/30 11:18:02;;;;;;;0.70;0.60;;;;;;;;;;5133212;27;20451;-68
2021/06/30 11:20:44;;;;;;;1.00;0.50;;;;;;;;;;5133647;27;20534;-68
2021/06/30 11:23:18;;;;;;;0.80;0.53;;;;;;;;;;5130976;27;20450;-68
2021/06/30 11:25:45;;;;;;;4.10;0.83;;;;;;;;;;5133797;27;20446;-68
2021/06/30 11:28:27;;;;;;;0.60;0.60;;;;;;;;;;5133550;27;20598;-68
2021/06/30 11:30:54;;;;;;;0.57;0.47;;;;;;;;;;5134130;27;20534;-68
2021/06/30 11:33:23;;;;;;;0.70;0.50;;;;;;;;;;5133558;27;20450;-68
2021/06/30 11:35:50;;;;;;;0.80;0.40;;;;;;;;;;5133130;27;20439;-69
2021/06/30 11:38:22;;;;;;;0.70;0.60;;;;;;;;;;5130975;27;20456;-69
2021/06/30 11:40:54;;;;;;;1.10;0.57;;;;;;;;;;5113445;28;20868;-69
2021/06/30 11:43:24;;;;;;;0.70;0.60;;;;;;;;;;5112544;28;20448;-69
2021/06/30 11:45:53;;;;;;;0.60;0.50;;;;;;;;;;5116804;28;20508;-69
2021/06/30 11:48:20;;;;;;;1.27;0.60;;;;;;;;;;5116660;28;20852;-69
2021/06/30 11:50:52;;;;;;;0.97;0.70;;;;;;;;;;5112733;28;20974;-69
2021/06/30 11:53:31;;;;;;;1.10;0.83;;;;;;;;;;5098970;28;20961;-69
2021/06/30 11:55:58;;;;;;;0.70;0.60;;;;;;;;;;5111901;28;20518;-69
2021/06/30 11:58:39;;;;;;;1.20;0.63;;;;;;;;;;5107030;28;20468;-69
2021/06/30 12:01:16;;;;;;;1.60;1.00;;;;;;;;;;5127865;27;20521;-69
2021/06/30 12:03:43;;;;;;;1.00;0.80;;;;;;;;;;5132933;27;20553;-69
2021/06/30 12:06:23;;;;;;;1.20;0.70;;;;;;;;;;5132217;27;20450;-69
2021/06/30 12:09:04;;;;;;;1.20;0.93;;;;;;;;;;5132983;27;20477;-69
2021/06/30 12:11:32;;;;;;;1.10;1.00;;;;;;;;;;5133171;27;20522;-69
2021/06/30 12:14:04;;;;;;;0.97;0.80;;;;;;;;;;5132457;27;20443;-69
2021/06/30 12:16:50;;;;;;;1.00;0.80;;;;;;;;;;5132356;27;20454;-69
2021/06/30 12:19:19;;;;;;;1.10;0.70;;;;;;;;;;5132146;27;20476;-69
2021/06/30 12:21:48;;;;;;;1.13;0.70;;;;;;;;;;5132479;27;20990;-69
2021/06/30 12:24:17;;;;;;;1.07;0.87;;;;;;;;;;5131427;27;20446;-69
2021/06/30 12:27:05;;;;;;;1.73;0.87;;;;;;;;;;5132254;27;20449;-69
2021/06/30 12:29:34;;;;;;;0.70;0.53;;;;;;;;;;5132436;27;20566;-69
2021/06/30 12:32:01;;;;;;;1.30;0.93;;;;;;;;;;5131701;27;20859;-69
2021/06/30 12:34:28;;;;;;;1.20;0.70;;;;;;;;;;5132608;27;20443;-69
2021/06/30 12:36:58;;;;;;;0.80;0.77;;;;;;;;;;5132360;27;20456;-69
2021/06/30 12:39:27;;;;;;;1.17;0.70;;;;;;;;;;5132456;27;20462;-69
2021/06/30 12:41:55;;;;;;;1.10;0.80;;;;;;;;;;5133021;27;20470;-69
2021/06/30 12:44:23;;;;;;;1.00;0.70;;;;;;;;;;5132618;27;20434;-68
2021/06/30 12:47:05;;;;;;;1.10;0.70;;;;;;;;;;5125729;27;20448;-69
2021/06/30 12:49:32;;;;;;;0.80;0.63;;;;;;;;;;5109139;28;20838;-69
2021/06/30 12:52:02;;;;;;;1.73;0.60;;;;;;;;;;5111349;28;20440;-69
2021/06/30 12:54:29;;;;;;;1.13;0.70;;;;;;;;;;5111433;28;20546;-69
2021/06/30 12:57:03;;;;;;;0.80;0.60;;;;;;;;;;5111285;28;20534;-69
2021/06/30 12:59:30;;;;;;;0.90;0.70;;;;;;;;;;5106697;28;20452;-69
2021/06/30 13:01:57;;;;;;;0.70;0.60;;;;;;;;;;5131704;27;20762;-71
2021/06/30 13:04:32;;;;;;;0.60;0.60;;;;;;;;;;5131826;27;20566;-69
2021/06/30 13:07:01;;;;;;;0.80;0.60;;;;;;;;;;5131033;28;20998;-69
2021/06/30 13:09:28;;;;;;;1.17;0.90;;;;;;;;;;5132177;28;20489;-69
2021/06/30 13:11:57;;;;;;;0.70;0.70;;;;;;;;;;5132127;28;20886;-69
2021/06/30 13:14:25;;;;;;;0.90;0.70;;;;;;;;;;5132384;28;20442;-69
2021/06/30 13:16:56;;;;;;;1.00;0.80;;;;;;;;;;5131844;28;20531;-70
2021/06/30 13:19:24;;;;;;;0.90;0.70;;;;;;;;;;5132271;28;20851;-70
2021/06/30 13:21:53;;;;;;;0.80;0.63;;;;;;;;;;5131962;28;20442;-70
2021/06/30 13:24:25;;;;;;;0.77;0.77;;;;;;;;;;5121922;28;20447;-70
2021/06/30 13:27:27;;;;;;;0.60;0.53;;;;;;;;;;5110972;28;20940;-70
2021/06/30 13:35:36;;;;;;;2.47;0.70;;;;;;;;;;5111279;28;20399;-70
2021/06/30 13:38:04;;;;;;;0.87;0.73;;;;;;;;;;5130642;27;20474;-70
2021/06/30 13:40:33;;;;;;;1.53;0.70;;;;;;;;;;5135696;27;20438;-71
2021/06/30 13:43:01;;;;;;;1.70;0.60;;;;;;;;;;5135390;27;20891;-68
2021/06/30 13:45:34;;;;;;;0.73;0.70;;;;;;;;;;5135152;27;20449;-68
2021/06/30 13:48:01;;;;;;;1.30;0.90;;;;;;;;;;5117162;27;20535;-68
2021/06/30 13:50:28;;;;;;;1.93;1.07;;;17.30;99.90;;;;;;5115073;28;20518;-68
2021/06/30 13:52:56;;;;;;;1.30;0.87;;;;;;;;;;5115094;28;20526;-67
2021/06/30 13:55:25;;;;;;;1.60;0.90;;;;;;;;;;5114621;28;20547;-68
2021/06/30 13:57:53;;;;;;;1.53;0.80;;;;;;;;;;5113733;28;20520;-68
2021/06/30 14:00:21;;;;;;;0.60;0.60;;;;;;;;;;5105414;28;20943;-67
2021/06/30 14:02:48;;;;;;;0.90;0.80;;;;;;;;;;5114846;28;20778;-67
2021/06/30 14:05:15;;;;;;;2.70;0.97;;;;;;;;;;5114056;28;20530;-68
2021/06/30 14:07:42;;;;;;;1.10;0.70;;;;;;;;;;5114515;28;20939;-69
2021/06/30 14:10:10;;;;;;;1.40;0.70;;;;;;;;;;5113804;28;21083;-67
2021/06/30 14:12:37;;;;;;;1.20;0.90;;;;;;;;;;5114591;28;20530;-67
2021/06/30 14:15:07;;;;;;;1.20;0.70;;;;;;;;;;5113797;28;20527;-68
2021/06/30 14:17:34;;;;;;;0.70;0.60;;;;;;;;;;5114593;28;20784;-67
2021/06/30 14:20:02;;;;;;;1.63;0.67;;;;;;;;;;5113823;28;20440;-68
2021/06/30 14:22:30;;;;;;;0.83;0.70;;;;;;;;;;5114591;28;20447;-68
2021/06/30 14:24:57;;;;;;;0.70;0.60;;;;;;;;;;5113957;28;20528;-70
2021/06/30 14:27:26;;;;;;;0.70;0.67;;;18.40;1.00;;;;;;5114783;28;20485;-67
2021/06/30 14:29:54;;;;;;;1.13;0.77;;;;;;;;;;5114378;28;20569;-67
2021/06/30 14:32:23;;;;;;;0.63;0.63;;;;;;;;;;5113940;28;20452;-66
2021/06/30 14:34:51;;;;;;;0.70;0.60;;;;;;;;;;5114362;28;20853;-66
2021/06/30 14:37:18;;;;;;;0.90;0.90;;;;;;;;;;5113696;28;20447;-68
2021/06/30 14:39:45;;;;;;;1.77;0.70;;;;;;;;;;5113885;28;20531;-68
2021/06/30 14:42:13;;;;;;;1.93;0.90;;;;;;;;;;5122113;27;20438;-68
2021/06/30 14:44:40;;;;;;;0.90;0.77;;;;;;;;;;5134384;27;20951;-68
2021/06/30 14:47:07;;;;;;;0.83;0.70;;;;;;;;;;5133288;27;20439;-68
2021/06/30 14:49:36;;;;;;;0.90;0.80;;;;;;;;;;5118656;27;20845;-69
2021/06/30 14:52:04;;;;;;;1.20;0.80;;;;;;;;;;5113297;28;20495;-69
2021/06/30 14:54:31;;;;;;;2.07;0.80;;;;;;;;;;5114106;28;20531;-68
2021/06/30 14:56:59;;;;;;;1.30;1.10;;;;;;;;;;5113147;28;20447;-68